createdAt,value
2018-03-06T00:02:27.245Z,16.33
2018-03-06T00:04:59.733Z,14.73
2018-03-06T00:07:32.246Z,16.93
2018-03-06T00:10:04.903Z,16.73
2018-03-06T00:12:37.573Z,14.80
2018-03-06T00:15:10.086Z,16.90
2018-03-06T00:17:42.707Z,20.93
2018-03-06T00:20:15.241Z,19.67
2018-03-06T00:22:47.753Z,18.53
2018-03-06T00:25:20.250Z,19.37
2018-03-06T00:27:52.767Z,16.00
2018-03-06T00:30:25.262Z,15.70
2018-03-06T00:32:57.771Z,14.47
2018-03-06T00:35:30.258Z,19.33
2018-03-06T00:38:03.012Z,16.37
2018-03-06T00:40:36.293Z,16.17
2018-03-06T00:43:08.968Z,19.60
2018-03-06T00:45:41.490Z,16.70
2018-03-06T00:48:14.007Z,16.77
2018-03-06T00:50:46.498Z,15.60
2018-03-06T00:53:19.009Z,18.13
2018-03-06T00:55:51.503Z,16.70
2018-03-06T00:58:24.035Z,14.27
2018-03-06T01:00:56.526Z,15.57
2018-03-06T01:03:29.035Z,12.33
2018-03-06T01:06:01.590Z,18.87
2018-03-06T01:08:34.194Z,15.30
2018-03-06T01:11:06.828Z,16.87
2018-03-06T01:13:39.454Z,16.17
2018-03-06T01:16:11.963Z,18.93
2018-03-06T01:18:44.558Z,13.53
2018-03-06T01:21:17.054Z,16.20
2018-03-06T01:23:49.566Z,21.40
2018-03-06T01:26:22.064Z,19.87
2018-03-06T01:28:54.591Z,17.47
2018-03-06T01:31:27.077Z,22.87
2018-03-06T01:33:59.586Z,17.60
2018-03-06T01:36:32.083Z,19.83
2018-03-06T01:39:04.726Z,17.93
2018-03-06T01:41:37.551Z,19.87
2018-03-06T01:44:10.166Z,20.47
2018-03-06T01:46:42.698Z,17.57
2018-03-06T01:49:15.226Z,15.17
2018-03-06T01:51:58.598Z,18.80
2018-03-06T01:54:31.109Z,17.70
2018-03-06T01:57:03.718Z,17.20
2018-03-06T01:59:36.788Z,16.83
2018-03-06T02:02:09.502Z,18.23
2018-03-06T02:04:42.109Z,17.60
2018-03-06T02:07:14.641Z,20.90
2018-03-06T02:09:47.162Z,18.73
2018-03-06T02:12:19.660Z,19.30
2018-03-06T02:14:52.200Z,19.47
2018-03-06T02:17:24.694Z,22.17
2018-03-06T02:19:57.202Z,23.67
2018-03-06T02:22:29.694Z,22.53
2018-03-06T02:25:02.214Z,23.53
2018-03-06T02:27:34.776Z,19.53
2018-03-06T02:30:07.472Z,22.40
2018-03-06T02:32:40.091Z,20.43
2018-03-06T02:35:12.660Z,24.17
2018-03-06T02:37:45.169Z,24.30
2018-03-06T02:40:17.689Z,20.27
2018-03-06T02:42:50.182Z,22.47
2018-03-06T02:45:22.695Z,20.60
2018-03-06T02:47:55.186Z,20.87
2018-03-06T02:50:27.699Z,20.70
2018-03-06T02:53:00.186Z,29.87
2018-03-06T02:55:32.754Z,22.20
2018-03-06T02:58:06.990Z,26.77
2018-03-06T03:00:39.863Z,20.50
2018-03-06T03:03:12.445Z,23.27
2018-03-06T03:05:44.986Z,22.37
2018-03-06T03:08:17.490Z,25.23
2018-03-06T03:10:49.994Z,28.47
2018-03-06T03:13:22.486Z,25.57
2018-03-06T03:15:55.000Z,37.77
2018-03-06T03:18:27.487Z,38.50
2018-03-06T03:21:00.001Z,41.27
2018-03-06T03:23:32.492Z,32.17
2018-03-06T03:26:05.109Z,34.00
2018-03-06T03:28:37.726Z,41.23
2018-03-06T03:31:10.367Z,34.63
2018-03-06T03:33:42.932Z,31.37
2018-03-06T03:36:15.564Z,48.47
2018-03-06T03:38:48.067Z,43.17
2018-03-06T03:41:20.585Z,41.93
2018-03-06T03:43:53.074Z,35.03
2018-03-06T03:46:25.604Z,44.77
2018-03-06T03:48:58.102Z,37.60
2018-03-06T03:51:30.626Z,35.67
2018-03-06T03:54:03.173Z,42.97
2018-03-06T03:56:36.078Z,55.10
2018-03-06T03:59:08.609Z,53.00
2018-03-06T04:01:41.157Z,55.07
2018-03-06T04:04:13.734Z,50.30
2018-03-06T04:06:46.262Z,54.67
2018-03-06T04:09:18.752Z,52.70
2018-03-06T04:11:51.266Z,69.33
2018-03-06T04:14:23.758Z,52.63
2018-03-06T04:16:56.299Z,59.20
2018-03-06T04:19:28.791Z,56.87
2018-03-06T04:22:01.302Z,49.43
2018-03-06T04:24:33.972Z,54.10
2018-03-06T04:27:06.758Z,46.73
2018-03-06T04:29:39.848Z,48.63
2018-03-06T04:32:12.565Z,58.80
2018-03-06T04:34:45.114Z,50.83
2018-03-06T04:37:17.690Z,51.47
2018-03-06T04:39:50.184Z,49.13
2018-03-06T04:42:22.692Z,61.47
2018-03-06T04:44:55.190Z,54.60
2018-03-06T04:47:27.723Z,52.80
2018-03-06T04:50:00.216Z,47.10
2018-03-06T04:52:32.738Z,58.87
2018-03-06T04:55:05.707Z,55.73
2018-03-06T04:57:38.267Z,60.47
2018-03-06T05:00:10.871Z,52.53
2018-03-06T05:02:43.464Z,69.43
2018-03-06T05:05:16.033Z,61.93
2018-03-06T05:07:48.556Z,69.63
2018-03-06T05:10:21.047Z,60.90
2018-03-06T05:12:53.573Z,65.63
2018-03-06T05:15:26.071Z,59.60
2018-03-06T05:17:58.582Z,80.67
2018-03-06T05:20:31.074Z,67.77
2018-03-06T05:23:03.693Z,63.53
2018-03-06T05:25:36.560Z,71.43
2018-03-06T05:28:09.190Z,63.17
2018-03-06T05:30:41.732Z,63.27
2018-03-06T05:33:14.321Z,74.60
2018-03-06T05:35:46.832Z,73.00
2018-03-06T05:38:19.602Z,78.77
2018-03-06T05:40:52.091Z,81.00
2018-03-06T05:43:24.599Z,89.73
2018-03-06T05:45:57.094Z,74.70
2018-03-06T05:48:29.605Z,81.10
2018-03-06T05:51:02.094Z,81.20
2018-03-06T05:53:34.912Z,87.87
2018-03-06T05:56:08.175Z,89.57
2018-03-06T05:58:40.737Z,106.07
2018-03-06T06:01:13.248Z,98.57
2018-03-06T06:03:45.844Z,106.80
2018-03-06T06:06:18.384Z,92.00
2018-03-06T06:08:50.910Z,89.03
2018-03-06T06:11:23.401Z,99.43
2018-03-06T06:13:55.914Z,119.13
2018-03-06T06:16:28.443Z,95.93
2018-03-06T06:19:00.939Z,97.23
2018-03-06T06:21:33.888Z,96.47
2018-03-06T06:24:06.680Z,118.37
2018-03-06T06:26:39.251Z,108.37
2018-03-06T06:29:11.913Z,96.23
2018-03-06T06:31:44.428Z,104.13
2018-03-06T06:34:16.974Z,91.50
2018-03-06T06:36:49.462Z,84.47
2018-03-06T06:39:21.955Z,89.77
2018-03-06T06:41:54.421Z,94.60
2018-03-06T06:44:26.923Z,91.60
2018-03-06T06:46:59.395Z,96.03
2018-03-06T06:49:31.903Z,114.33
2018-03-06T06:52:04.640Z,99.57
2018-03-06T06:54:37.203Z,101.77
2018-03-06T06:57:09.756Z,105.00
2018-03-06T06:59:42.350Z,94.13
2018-03-06T07:02:14.974Z,83.23
2018-03-06T07:04:47.538Z,96.80
2018-03-06T07:07:20.030Z,130.17
2018-03-06T07:09:52.521Z,93.60
2018-03-06T07:12:24.999Z,87.07
2018-03-06T07:14:57.511Z,106.10
2018-03-06T07:17:29.989Z,91.27
2018-03-06T07:20:02.493Z,102.50
2018-03-06T07:22:35.554Z,118.80
2018-03-06T07:25:08.513Z,96.23
2018-03-06T07:27:41.054Z,108.83
2018-03-06T07:30:13.702Z,91.33
2018-03-06T07:32:46.297Z,98.80
2018-03-06T07:35:18.816Z,89.57
2018-03-06T07:37:51.299Z,99.50
2018-03-06T07:40:23.789Z,91.27
2018-03-06T07:42:56.258Z,94.20
2018-03-06T07:45:28.758Z,91.43
2018-03-06T07:48:01.230Z,96.70
2018-03-06T07:50:33.892Z,82.60
2018-03-06T07:53:06.832Z,90.27
2018-03-06T07:55:39.578Z,97.57
2018-03-06T07:58:12.134Z,89.50
2018-03-06T08:00:44.819Z,92.67
2018-03-06T08:03:17.402Z,86.20
2018-03-06T08:05:49.911Z,92.53
2018-03-06T08:08:22.399Z,79.53
2018-03-06T08:10:54.949Z,92.17
2018-03-06T08:13:27.387Z,87.03
2018-03-06T08:15:59.880Z,84.30
2018-03-06T08:18:32.395Z,83.53
2018-03-06T08:21:05.132Z,88.57
2018-03-06T08:23:38.142Z,85.83
2018-03-06T08:26:10.764Z,82.40
2018-03-06T08:28:43.353Z,85.27
2018-03-06T08:31:15.850Z,90.17
2018-03-06T08:33:48.343Z,83.90
2018-03-06T08:36:20.836Z,84.13
2018-03-06T08:38:53.310Z,84.40
2018-03-06T08:41:25.812Z,89.30
2018-03-06T08:43:58.290Z,80.10
2018-03-06T08:46:30.793Z,83.23
2018-03-06T08:49:03.270Z,81.87
2018-03-06T08:51:35.878Z,79.77
2018-03-06T08:54:08.467Z,75.00
2018-03-06T08:56:41.047Z,76.43
2018-03-06T08:59:13.564Z,74.67
2018-03-06T09:01:46.160Z,77.80
2018-03-06T09:04:18.634Z,78.17
2018-03-06T09:06:51.126Z,76.07
2018-03-06T09:09:23.608Z,74.27
2018-03-06T09:11:56.106Z,77.23
2018-03-06T09:14:28.583Z,74.40
2018-03-06T09:17:01.075Z,74.83
2018-03-06T09:19:33.765Z,73.77
2018-03-06T09:22:06.776Z,71.97
2018-03-06T09:24:39.334Z,83.77
2018-03-06T09:27:11.962Z,77.37
2018-03-06T09:29:44.595Z,80.57
2018-03-06T09:32:17.100Z,75.53
2018-03-06T09:34:49.580Z,76.50
2018-03-06T09:37:22.079Z,73.17
2018-03-06T09:39:54.558Z,74.43
2018-03-06T09:42:27.053Z,80.37
2018-03-06T09:44:59.526Z,75.50
2018-03-06T09:47:32.017Z,77.17
2018-03-06T09:50:04.663Z,73.03
2018-03-06T09:52:37.658Z,75.00
2018-03-06T09:55:10.200Z,76.73
2018-03-06T09:57:42.755Z,78.93
2018-03-06T10:00:15.247Z,70.60
2018-03-06T10:02:47.742Z,74.07
2018-03-06T10:05:20.279Z,79.10
2018-03-06T10:07:52.807Z,71.73
2018-03-06T10:10:25.335Z,77.13
2018-03-06T10:12:57.853Z,72.50
2018-03-06T10:15:30.387Z,79.37
2018-03-06T10:18:02.894Z,74.97
2018-03-06T10:20:35.696Z,74.00
2018-03-06T10:23:08.888Z,77.73
2018-03-06T10:25:41.542Z,75.93
2018-03-06T10:28:14.109Z,74.03
2018-03-06T10:30:46.676Z,74.07
2018-03-06T10:33:19.211Z,76.97
2018-03-06T10:35:51.742Z,78.00
2018-03-06T10:38:24.268Z,73.57
2018-03-06T10:40:56.800Z,78.23
2018-03-06T10:43:29.310Z,79.30
2018-03-06T10:46:01.847Z,77.13
2018-03-06T10:48:34.530Z,74.90
2018-03-06T10:51:07.167Z,75.13
2018-03-06T10:53:39.856Z,78.60
2018-03-06T10:56:12.461Z,78.60
2018-03-06T10:58:44.979Z,77.60
2018-03-06T11:01:23.030Z,77.90
2018-03-06T11:03:55.542Z,79.03
2018-03-06T11:06:28.034Z,80.13
2018-03-06T11:09:00.514Z,74.50
2018-03-06T11:11:33.016Z,74.67
2018-03-06T11:14:05.649Z,77.00
2018-03-06T11:16:38.212Z,78.43
2018-03-06T11:19:10.719Z,73.57
2018-03-06T11:21:43.348Z,64.73
2018-03-06T11:24:15.887Z,77.73
2018-03-06T11:26:48.411Z,78.23
2018-03-06T11:29:20.891Z,77.57
2018-03-06T11:31:53.389Z,79.73
2018-03-06T11:34:25.885Z,80.07
2018-03-06T11:36:58.379Z,86.97
2018-03-06T11:39:30.854Z,78.57
2018-03-06T11:42:03.355Z,75.30
2018-03-06T11:44:35.943Z,78.13
2018-03-06T11:47:08.969Z,77.20
2018-03-06T11:49:41.538Z,75.93
2018-03-06T11:52:14.069Z,79.00
2018-03-06T11:54:46.555Z,81.83
2018-03-06T11:57:19.045Z,77.17
2018-03-06T11:59:51.514Z,77.27
2018-03-06T12:02:24.006Z,80.63
2018-03-06T12:04:56.592Z,80.50
2018-03-06T12:07:29.099Z,73.53
2018-03-06T12:10:01.576Z,74.77
2018-03-06T12:12:34.123Z,78.17
2018-03-06T12:15:06.869Z,76.33
2018-03-06T12:17:39.519Z,74.17
2018-03-06T12:20:12.089Z,78.37
2018-03-06T12:22:44.611Z,80.53
2018-03-06T12:25:17.092Z,78.30
2018-03-06T12:27:49.587Z,75.47
2018-03-06T12:30:22.069Z,80.13
2018-03-06T12:32:54.571Z,80.27
2018-03-06T12:35:27.042Z,76.37
2018-03-06T12:37:59.546Z,76.37
2018-03-06T12:40:32.019Z,78.97
2018-03-06T12:43:04.775Z,78.53
2018-03-06T12:45:37.306Z,74.03
2018-03-06T12:48:09.868Z,77.47
2018-03-06T12:50:42.370Z,76.90
2018-03-06T12:53:14.861Z,72.93
2018-03-06T12:55:47.335Z,74.53
2018-03-06T12:58:19.821Z,79.53
2018-03-06T13:00:52.295Z,74.67
2018-03-06T13:03:24.794Z,79.83
2018-03-06T13:05:57.272Z,74.57
2018-03-06T13:08:29.758Z,76.80
2018-03-06T13:11:02.230Z,77.10
2018-03-06T13:13:34.773Z,70.27
2018-03-06T13:16:07.314Z,81.83
2018-03-06T13:18:39.941Z,78.57
2018-03-06T13:21:12.503Z,77.70
2018-03-06T13:23:44.990Z,79.70
2018-03-06T13:26:17.470Z,73.60
2018-03-06T13:28:49.965Z,74.87
2018-03-06T13:31:22.447Z,79.70
2018-03-06T13:33:54.943Z,76.60
2018-03-06T13:36:27.441Z,75.67
2018-03-06T13:38:59.933Z,71.43
2018-03-06T13:41:32.406Z,74.97
2018-03-06T13:44:05.017Z,73.77
2018-03-06T13:46:37.566Z,76.60
2018-03-06T13:49:10.118Z,74.93
2018-03-06T13:51:42.650Z,72.27
2018-03-06T13:54:15.146Z,70.43
2018-03-06T13:56:47.658Z,75.07
2018-03-06T13:59:20.134Z,76.87
2018-03-06T14:01:52.638Z,68.33
2018-03-06T14:04:25.114Z,71.33
2018-03-06T14:06:57.610Z,76.60
2018-03-06T14:09:30.082Z,72.87
2018-03-06T14:12:02.596Z,74.03
2018-03-06T14:14:35.184Z,70.97
2018-03-06T14:17:07.771Z,72.87
2018-03-06T14:19:40.264Z,71.73
2018-03-06T14:22:12.772Z,75.47
2018-03-06T14:24:45.237Z,73.17
2018-03-06T14:27:17.731Z,71.13
2018-03-06T14:29:50.197Z,70.30
2018-03-06T14:32:22.698Z,72.13
2018-03-06T14:34:55.166Z,71.57
2018-03-06T14:37:27.679Z,72.10
2018-03-06T14:40:00.145Z,69.87
2018-03-06T14:42:32.640Z,71.70
2018-03-06T14:45:05.195Z,67.03
2018-03-06T14:47:37.751Z,69.10
2018-03-06T14:50:10.261Z,66.63
2018-03-06T14:52:42.780Z,71.70
2018-03-06T14:55:15.256Z,67.33
2018-03-06T14:57:47.748Z,68.47
2018-03-06T15:00:20.230Z,68.40
2018-03-06T15:02:52.722Z,63.77
2018-03-06T15:05:25.188Z,66.27
2018-03-06T15:07:57.686Z,64.73
2018-03-06T15:10:30.169Z,61.47
2018-03-06T15:13:02.667Z,65.33
2018-03-06T15:15:35.266Z,64.23
2018-03-06T15:18:07.850Z,67.53
2018-03-06T15:20:40.379Z,65.70
2018-03-06T15:23:12.922Z,69.57
2018-03-06T15:25:45.409Z,71.07
2018-03-06T15:28:17.903Z,76.07
2018-03-06T15:30:50.391Z,67.97
2018-03-06T15:33:22.883Z,70.73
2018-03-06T15:35:55.354Z,67.97
2018-03-06T15:38:27.850Z,69.80
2018-03-06T15:41:00.328Z,70.53
2018-03-06T15:43:32.849Z,62.97
2018-03-06T15:46:05.474Z,71.20
2018-03-06T15:48:38.045Z,71.37
2018-03-06T15:51:10.586Z,65.03
2018-03-06T15:53:43.131Z,63.87
2018-03-06T15:56:15.626Z,70.70
2018-03-06T15:58:48.123Z,64.53
2018-03-06T16:01:20.598Z,67.53
2018-03-06T16:03:53.087Z,72.57
2018-03-06T16:06:25.561Z,65.47
2018-03-06T16:08:58.058Z,67.80
2018-03-06T16:11:30.538Z,66.33
2018-03-06T16:14:03.038Z,66.47
2018-03-06T16:16:35.571Z,69.70
2018-03-06T16:19:08.091Z,66.47
2018-03-06T16:21:40.631Z,72.83
2018-03-06T16:24:13.158Z,68.57
2018-03-06T16:26:45.652Z,67.60
2018-03-06T16:29:18.138Z,67.10
2018-03-06T16:31:50.614Z,67.70
2018-03-06T16:34:23.100Z,67.87
2018-03-06T16:36:55.570Z,66.07
2018-03-06T16:39:28.065Z,71.50
2018-03-06T16:42:00.538Z,71.87
2018-03-06T16:44:33.032Z,71.77
2018-03-06T16:47:05.538Z,67.40
2018-03-06T16:49:38.110Z,65.93
2018-03-06T16:52:10.597Z,64.37
2018-03-06T16:54:43.136Z,61.13
2018-03-06T16:57:15.622Z,66.63
2018-03-06T16:59:48.418Z,62.47
2018-03-06T17:02:20.935Z,71.37
2018-03-06T17:04:53.467Z,65.90
2018-03-06T17:07:26.007Z,69.97
2018-03-06T17:09:58.513Z,66.93
2018-03-06T17:12:31.057Z,70.23
2018-03-06T17:15:03.667Z,70.87
2018-03-06T17:17:36.202Z,69.23
2018-03-06T17:20:08.731Z,72.57
2018-03-06T17:22:41.275Z,66.70
2018-03-06T17:25:13.792Z,62.90
2018-03-06T17:27:46.273Z,63.90
2018-03-06T17:30:18.763Z,72.43
2018-03-06T17:32:51.245Z,65.17
2018-03-06T17:35:23.751Z,75.63
2018-03-06T17:37:56.227Z,69.83
2018-03-06T17:40:28.727Z,78.87
2018-03-06T17:43:01.194Z,71.47
2018-03-06T17:45:33.706Z,73.00
2018-03-06T17:48:06.287Z,65.60
2018-03-06T17:50:38.793Z,71.07
2018-03-06T17:53:11.302Z,76.87
2018-03-06T17:55:43.826Z,74.23
2018-03-06T17:58:16.294Z,70.33
2018-03-06T18:00:48.788Z,78.77
2018-03-06T18:03:21.262Z,72.63
2018-03-06T18:05:53.765Z,74.93
2018-03-06T18:08:26.230Z,73.57
2018-03-06T18:10:58.718Z,75.27
2018-03-06T18:13:31.183Z,70.00
2018-03-06T18:16:03.703Z,76.90
2018-03-06T18:18:36.230Z,74.07
2018-03-06T18:21:08.863Z,72.80
2018-03-06T18:23:41.374Z,75.93
2018-03-06T18:26:14.036Z,75.90
2018-03-06T18:28:46.581Z,80.83
2018-03-06T18:31:19.066Z,67.67
2018-03-06T18:33:51.564Z,70.57
2018-03-06T18:36:24.041Z,69.27
2018-03-06T18:38:56.534Z,72.43
2018-03-06T18:41:29.064Z,73.20
2018-03-06T18:44:01.557Z,62.03
2018-03-06T18:46:34.118Z,73.60
2018-03-06T18:49:06.658Z,73.80
2018-03-06T18:51:39.200Z,81.53
2018-03-06T18:54:11.933Z,80.90
2018-03-06T18:56:44.443Z,79.13
2018-03-06T18:59:16.930Z,74.97
2018-03-06T19:05:07.185Z,71.30
2018-03-06T19:07:39.677Z,76.20
2018-03-06T19:10:12.313Z,69.53
2018-03-06T19:12:44.805Z,73.97
2018-03-06T19:15:17.324Z,71.53
2018-03-06T19:17:49.809Z,69.07
2018-03-06T19:20:22.413Z,67.97
2018-03-06T19:22:54.980Z,66.00
2018-03-06T19:25:27.509Z,68.53
2018-03-06T19:28:00.007Z,71.80
2018-03-06T19:30:32.524Z,77.83
2018-03-06T19:33:05.023Z,71.13
2018-03-06T19:35:37.528Z,70.03
2018-03-06T19:38:10.039Z,74.07
2018-03-06T19:40:42.602Z,76.30
2018-03-06T19:43:15.093Z,78.87
2018-03-06T19:45:47.615Z,72.97
2018-03-06T19:48:20.121Z,74.97
2018-03-06T19:50:52.649Z,75.47
2018-03-06T19:53:25.249Z,74.13
2018-03-06T19:55:57.772Z,78.57
2018-03-06T19:58:30.273Z,84.03
2018-03-06T20:01:02.964Z,78.73
2018-03-06T20:03:35.463Z,83.53
2018-03-06T20:06:07.981Z,75.10
2018-03-06T20:08:40.478Z,77.63
2018-03-06T20:11:12.994Z,70.47
2018-03-06T20:13:45.492Z,74.33
2018-03-06T20:16:18.025Z,66.10
2018-03-06T20:18:55.943Z,76.23
2018-03-06T20:21:28.467Z,72.70
2018-03-06T20:24:06.695Z,69.83
2018-03-06T20:26:39.346Z,68.43
2018-03-06T20:29:11.837Z,76.47
2018-03-06T20:31:49.970Z,76.37
2018-03-06T20:34:22.464Z,71.77
2018-03-06T20:36:54.969Z,78.50
2018-03-06T20:39:32.998Z,77.93
2018-03-06T20:42:05.563Z,84.30
2018-03-06T20:44:38.058Z,76.53
2018-03-06T20:47:27.243Z,74.73
2018-03-06T20:49:59.738Z,79.97
2018-03-06T20:52:38.051Z,82.10
2018-03-06T20:55:11.325Z,90.63
2018-03-06T20:57:43.833Z,77.10
2018-03-06T21:00:16.353Z,76.50
2018-03-06T21:02:48.862Z,72.27
2018-03-06T21:05:21.362Z,81.00
2018-03-06T21:07:53.882Z,81.77
2018-03-06T21:10:26.382Z,82.60
2018-03-06T21:12:58.888Z,93.03
2018-03-06T21:15:31.381Z,80.63
2018-03-06T21:18:03.905Z,91.73
2018-03-06T21:20:36.399Z,82.43
2018-03-06T21:23:08.929Z,78.70
2018-03-06T21:25:41.422Z,82.73
2018-03-06T21:28:13.960Z,85.20
2018-03-06T21:30:46.449Z,85.73
2018-03-06T21:33:18.966Z,82.43
2018-03-06T21:35:51.462Z,79.77
2018-03-06T21:38:23.964Z,79.33
2018-03-06T21:40:56.453Z,85.53
2018-03-06T21:43:28.966Z,83.70
2018-03-06T21:46:01.482Z,84.30
2018-03-06T21:48:34.001Z,91.77
2018-03-06T21:51:06.517Z,77.67
2018-03-06T21:53:39.017Z,83.10
2018-03-06T21:56:11.533Z,90.23
2018-03-06T21:58:44.024Z,85.40
2018-03-06T22:01:16.542Z,99.13
2018-03-06T22:03:49.036Z,87.63
2018-03-06T22:06:21.549Z,93.57
2018-03-06T22:08:54.052Z,95.60
2018-03-06T22:11:26.562Z,84.07
2018-03-06T22:13:59.063Z,90.57
2018-03-06T22:16:31.578Z,83.87
2018-03-06T22:19:04.077Z,86.00
2018-03-06T22:21:36.594Z,89.07
2018-03-06T22:24:09.085Z,99.03
2018-03-06T22:26:41.603Z,97.97
2018-03-06T22:29:14.098Z,85.20
2018-03-06T22:31:46.615Z,92.93
2018-03-06T22:34:19.104Z,100.93
2018-03-06T22:36:51.614Z,91.63
2018-03-06T22:39:24.112Z,86.77
2018-03-06T22:41:56.633Z,78.63
2018-03-06T22:44:29.120Z,88.93
2018-03-06T22:47:01.630Z,87.20
2018-03-06T22:49:34.121Z,86.67
2018-03-06T22:52:06.628Z,87.93
2018-03-06T22:54:39.116Z,86.57
2018-03-06T22:57:11.620Z,83.73
2018-03-06T22:59:44.108Z,79.13
2018-03-06T23:02:16.623Z,80.77
2018-03-06T23:04:49.114Z,91.10
2018-03-06T23:07:21.634Z,93.80
2018-03-06T23:09:54.132Z,90.67
2018-03-06T23:12:26.646Z,82.70
2018-03-06T23:14:59.133Z,82.07
2018-03-06T23:17:31.646Z,82.30
2018-03-06T23:20:04.138Z,95.07
2018-03-06T23:22:36.651Z,93.90
2018-03-06T23:25:09.142Z,101.27
2018-03-06T23:27:41.658Z,100.53
2018-03-06T23:30:14.148Z,108.27
2018-03-06T23:32:46.677Z,97.57
2018-03-06T23:35:19.169Z,84.93
2018-03-06T23:37:51.681Z,85.63
2018-03-06T23:40:24.168Z,95.63
2018-03-06T23:42:56.686Z,86.00
2018-03-06T23:45:29.186Z,100.73
2018-03-06T23:48:01.715Z,102.03
2018-03-06T23:50:34.207Z,79.17
2018-03-06T23:53:06.721Z,81.13
2018-03-06T23:55:39.214Z,82.43
2018-03-06T23:58:11.727Z,80.37
